Time;durP1;ratioP1;P1;durP2;ratioP2;P2;SDS_P1;SDS_P2;PMS_P1;PMS_P2;Temp;Humidity;BMP_temperature;BMP_pressure;BME280_temperature;BME280_humidity;BME280_pressure;Samples;Min_cycle;Max_cycle;Signal;HPM_P1;HPM_P2
2021/08/29 00:00:41;;;;;;;5.30;3.38;;;17.60;99.90;;;;;;2080704;28;20026;-69
2021/08/29 00:01:42;;;;;;;6.43;3.50;;;17.60;99.90;;;;;;2079347;28;20045;-69
2021/08/29 00:02:42;;;;;;;4.35;3.03;;;17.60;99.90;;;;;;2080104;28;20038;-69
2021/08/29 00:03:43;;;;;;;5.00;3.10;;;17.60;99.90;;;;;;2080338;28;20092;-69
2021/08/29 00:04:43;;;;;;;7.50;3.38;;;17.50;99.90;;;;;;2080543;28;20044;-69
2021/08/29 00:05:44;;;;;;;5.93;3.65;;;17.50;99.90;;;;;;2080119;28;20033;-69
2021/08/29 00:06:44;;;;;;;4.78;3.22;;;17.50;99.90;;;;;;2082444;28;20029;-69
2021/08/29 00:07:45;;;;;;;5.88;3.25;;;17.50;99.90;;;;;;2084408;28;20030;-69
2021/08/29 00:08:46;;;;;;;5.13;3.30;;;17.50;99.90;;;;;;2080471;28;20026;-69
2021/08/29 00:09:47;;;;;;;7.22;3.40;;;17.50;99.90;;;;;;2080144;28;20036;-69
2021/08/29 00:10:47;;;;;;;6.47;3.75;;;17.50;99.90;;;;;;2080478;28;20028;-69
2021/08/29 00:11:48;;;;;;;3.25;2.90;;;17.50;99.90;;;;;;2080183;28;20030;-69
2021/08/29 00:12:48;;;;;;;3.75;3.30;;;17.50;99.90;;;;;;2079923;28;20421;-69
2021/08/29 00:13:49;;;;;;;4.43;2.88;;;17.60;99.90;;;;;;2079905;28;20385;-69
2021/08/29 00:14:50;;;;;;;7.55;3.70;;;17.50;99.90;;;;;;2080528;28;20030;-69
2021/08/29 00:15:50;;;;;;;8.27;3.58;;;17.60;99.90;;;;;;2080209;28;20108;-69
2021/08/29 00:16:51;;;;;;;6.45;3.70;;;17.60;99.90;;;;;;2080230;28;20384;-69
2021/08/29 00:17:51;;;;;;;9.77;2.95;;;17.60;99.90;;;;;;2080374;28;20068;-69
2021/08/29 00:18:52;;;;;;;6.90;3.13;;;17.60;99.90;;;;;;2079861;28;20029;-69
2021/08/29 00:19:52;;;;;;;6.10;3.05;;;17.60;99.90;;;;;;2080462;28;20036;-69
2021/08/29 00:20:53;;;;;;;4.75;3.05;;;17.60;99.90;;;;;;2080179;28;20022;-69
2021/08/29 00:21:53;;;;;;;3.60;2.90;;;17.60;99.90;;;;;;2080154;28;20104;-69
2021/08/29 00:22:54;;;;;;;6.20;3.65;;;17.60;99.90;;;;;;2075492;28;20085;-69
2021/08/29 00:23:55;;;;;;;7.13;3.75;;;17.60;99.90;;;;;;2077747;28;20528;-69
2021/08/29 00:24:55;;;;;;;8.68;4.45;;;17.60;99.90;;;;;;2080191;28;20093;-69
2021/08/29 00:25:56;;;;;;;5.85;4.13;;;17.60;99.90;;;;;;2079893;28;20028;-69
2021/08/29 00:26:56;;;;;;;5.13;3.70;;;17.60;99.90;;;;;;2080222;28;20141;-69
2021/08/29 00:27:57;;;;;;;5.93;3.60;;;17.60;99.90;;;;;;2080179;28;20021;-69
2021/08/29 00:28:57;;;;;;;5.95;3.85;;;17.50;99.90;;;;;;2080034;28;20038;-69
2021/08/29 00:29:58;;;;;;;8.07;3.95;;;17.60;99.90;;;;;;2080105;28;20053;-69
2021/08/29 00:30:58;;;;;;;5.70;3.70;;;17.50;99.90;;;;;;2080057;28;20034;-69
2021/08/29 00:31:59;;;;;;;5.15;3.92;;;17.50;99.90;;;;;;2080179;28;20386;-69
2021/08/29 00:32:59;;;;;;;6.00;4.00;;;17.60;99.90;;;;;;2079811;28;20063;-69
2021/08/29 00:34:00;;;;;;;7.55;4.53;;;17.60;99.90;;;;;;2080112;28;20079;-69
2021/08/29 00:35:00;;;;;;;9.20;4.40;;;17.60;99.90;;;;;;2080403;28;20704;-69
2021/08/29 00:36:01;;;;;;;7.55;4.22;;;17.50;99.90;;;;;;2088459;28;20449;-69
2021/08/29 00:37:02;;;;;;;6.57;4.65;;;17.60;99.90;;;;;;2083140;28;20022;-69
2021/08/29 00:38:02;;;;;;;6.07;4.47;;;17.60;99.90;;;;;;2080148;28;20104;-69
2021/08/29 00:39:03;;;;;;;9.05;4.70;;;17.60;99.90;;;;;;2080060;28;20029;-69
2021/08/29 00:40:05;;;;;;;5.18;3.80;;;17.60;99.90;;;;;;2080517;28;20018;-69
2021/08/29 00:41:07;;;;;;;6.55;3.97;;;17.50;99.90;;;;;;2079749;28;20036;-69
2021/08/29 00:42:08;;;;;;;8.32;4.68;;;17.50;99.90;;;;;;2079972;28;20017;-69
2021/08/29 00:43:08;;;;;;;5.35;4.18;;;17.50;99.90;;;;;;2079562;28;20029;-69
2021/08/29 00:44:14;;;;;;;6.57;4.05;;;17.50;99.90;;;;;;2079999;28;20124;-69
2021/08/29 00:45:16;;;;;;;9.50;4.03;;;17.50;99.90;;;;;;2079976;28;20021;-69
2021/08/29 00:46:17;;;;;;;6.05;4.35;;;17.50;99.90;;;;;;2079373;28;20025;-69
2021/08/29 00:47:18;;;;;;;5.60;3.85;;;17.50;99.90;;;;;;2079198;28;20022;-69
2021/08/29 00:48:19;;;;;;;8.20;4.03;;;17.50;99.90;;;;;;2079999;28;20025;-69
2021/08/29 00:49:20;;;;;;;5.40;4.55;;;17.50;99.90;;;;;;2071289;28;20028;-69
2021/08/29 00:50:20;;;;;;;9.13;4.10;;;17.50;99.90;;;;;;2071121;28;20083;-69
2021/08/29 00:51:21;;;;;;;6.10;4.55;;;17.50;99.90;;;;;;2079628;28;20057;-69
2021/08/29 00:52:21;;;;;;;10.70;4.95;;;17.50;99.90;;;;;;2080086;28;20025;-69
2021/08/29 00:53:22;;;;;;;7.03;4.70;;;17.50;99.90;;;;;;2079481;28;20037;-68
2021/08/29 00:54:23;;;;;;;5.68;4.07;;;17.50;99.90;;;;;;2080122;28;20057;-69
2021/08/29 00:55:23;;;;;;;7.03;4.68;;;17.50;99.90;;;;;;2083064;28;20033;-69
2021/08/29 00:56:24;;;;;;;5.20;3.70;;;17.50;99.90;;;;;;2084338;28;21049;-69
2021/08/29 00:57:25;;;;;;;6.82;4.43;;;17.50;99.90;;;;;;2080038;28;20369;-69
2021/08/29 00:58:26;;;;;;;5.78;3.40;;;17.50;99.90;;;;;;2079963;28;20036;-69
2021/08/29 00:59:30;;;;;;;6.53;3.80;;;17.50;99.90;;;;;;2080142;28;20037;-69
2021/08/29 01:00:37;;;;;;;7.60;4.28;;;17.50;99.90;;;;;;2080102;28;20028;-69
2021/08/29 01:01:51;;;;;;;4.90;3.97;;;17.50;99.90;;;;;;2079548;28;20056;-69
2021/08/29 01:02:52;;;;;;;7.90;3.65;;;17.50;99.90;;;;;;2074848;28;20061;-69
2021/08/29 01:04:00;;;;;;;7.05;4.30;;;17.50;99.90;;;;;;2079796;28;20108;-69
2021/08/29 01:05:06;;;;;;;5.93;4.38;;;17.50;99.90;;;;;;2079811;28;20041;-69
2021/08/29 01:06:24;;;;;;;10.02;4.78;;;17.50;99.90;;;;;;2075433;28;20026;-69
2021/08/29 01:07:38;;;;;;;7.72;4.93;;;17.50;99.90;;;;;;2080030;28;20038;-69
2021/08/29 01:08:41;;;;;;;6.15;4.35;;;17.50;99.90;;;;;;2079985;28;20032;-69
2021/08/29 01:09:43;;;;;;;8.02;4.50;;;17.50;99.90;;;;;;2079974;28;20064;-69
2021/08/29 01:11:03;;;;;;;7.57;4.70;;;17.50;99.90;;;;;;2079695;28;20044;-69
2021/08/29 01:12:06;;;;;;;5.57;3.90;;;17.50;99.90;;;;;;2079300;28;20028;-69
2021/08/29 01:13:09;;;;;;;11.38;4.85;;;17.50;99.90;;;;;;2078832;28;20036;-69
2021/08/29 01:14:15;;;;;;;6.68;4.53;;;17.50;99.90;;;;;;2080041;28;20030;-69
2021/08/29 01:15:31;;;;;;;7.78;5.15;;;17.50;99.90;;;;;;2079736;28;20017;-69
2021/08/29 01:16:37;;;;;;;9.40;4.63;;;17.50;99.90;;;;;;2077916;28;20196;-69
2021/08/29 01:17:38;;;;;;;5.97;4.20;;;17.50;99.90;;;;;;2079355;28;20021;-69
2021/08/29 01:18:45;;;;;;;5.57;4.45;;;17.50;99.90;;;;;;2079355;28;20018;-69
2021/08/29 01:20:23;;;;;;;10.07;4.45;;;17.50;99.90;;;;;;2071848;28;20482;-69
2021/08/29 01:21:26;;;;;;;5.07;4.57;;;17.50;99.90;;;;;;2071674;28;20029;-69
2021/08/29 01:22:28;;;;;;;9.13;4.55;;;17.40;99.90;;;;;;2075491;28;20029;-69
2021/08/29 01:23:31;;;;;;;8.10;4.28;;;17.50;99.90;;;;;;2079562;28;20096;-69
2021/08/29 01:24:32;;;;;;;8.82;5.32;;;17.50;99.90;;;;;;2079408;28;20027;-69
2021/08/29 01:25:37;;;;;;;7.20;4.70;;;17.50;99.90;;;;;;2079770;28;20029;-69
2021/08/29 01:26:53;;;;;;;8.80;4.78;;;17.50;99.90;;;;;;2079648;28;20056;-69
2021/08/29 01:28:04;;;;;;;6.57;4.53;;;17.50;99.90;;;;;;2080168;28;20033;-69
2021/08/29 01:29:06;;;;;;;10.57;4.93;;;17.50;99.90;;;;;;2079800;28;20096;-69
2021/08/29 01:30:10;;;;;;;9.43;4.80;;;17.50;99.90;;;;;;2079640;28;20486;-69
2021/08/29 01:31:11;;;;;;;8.00;4.75;;;17.50;99.90;;;;;;2079712;28;20021;-69
2021/08/29 01:32:13;;;;;;;8.68;4.65;;;17.50;99.90;;;;;;2079702;28;20113;-69
2021/08/29 01:33:14;;;;;;;8.13;4.97;;;17.50;99.90;;;;;;2070483;28;20109;-69
2021/08/29 01:34:18;;;;;;;6.13;4.38;;;17.50;99.90;;;;;;2070709;28;20513;-69
2021/08/29 01:35:18;;;;;;;7.65;4.55;;;17.50;99.90;;;;;;2079835;28;20029;-69
2021/08/29 01:36:20;;;;;;;10.05;4.95;;;17.50;99.90;;;;;;2079924;28;20026;-69
2021/08/29 01:37:21;;;;;;;7.93;4.90;;;17.50;99.90;;;;;;2079698;28;20037;-69
2021/08/29 01:38:22;;;;;;;7.10;4.57;;;17.50;99.90;;;;;;2079725;28;20025;-69
2021/08/29 01:39:23;;;;;;;7.80;4.35;;;17.50;99.90;;;;;;2079487;28;20165;-69
2021/08/29 01:40:24;;;;;;;9.55;4.32;;;17.60;99.90;;;;;;2079667;28;20017;-69
2021/08/29 01:41:25;;;;;;;5.82;3.90;;;17.60;99.90;;;;;;2079269;28;20080;-69
2021/08/29 01:42:26;;;;;;;5.95;4.40;;;17.60;99.90;;;;;;2079917;28;20029;-69
2021/08/29 01:43:27;;;;;;;5.22;4.05;;;17.60;99.90;;;;;;2079248;28;20085;-69
2021/08/29 01:44:28;;;;;;;7.90;4.45;;;17.60;99.90;;;;;;2079438;28;20124;-69
2021/08/29 01:45:29;;;;;;;6.50;3.95;;;17.60;99.90;;;;;;2079377;28;20021;-69
2021/08/29 01:46:32;;;;;;;10.18;4.22;;;17.60;99.90;;;;;;2079606;28;20029;-69
2021/08/29 01:47:32;;;;;;;7.65;4.07;;;17.60;99.90;;;;;;2079714;28;20034;-69
2021/08/29 01:48:34;;;;;;;9.13;4.07;;;17.60;99.90;;;;;;2079709;28;20036;-69
2021/08/29 01:49:34;;;;;;;7.18;4.32;;;17.60;99.90;;;;;;2079575;28;20041;-69
2021/08/29 01:50:35;;;;;;;8.13;4.47;;;17.60;99.90;;;;;;2079719;28;20022;-69
2021/08/29 01:51:37;;;;;;;8.15;4.93;;;17.60;99.90;;;;;;2079040;28;20022;-69
2021/08/29 01:52:38;;;;;;;8.15;4.57;;;17.60;99.90;;;;;;2079195;28;20064;-69
2021/08/29 01:53:39;;;;;;;8.48;4.22;;;17.60;99.90;;;;;;2079332;28;20025;-69
2021/08/29 01:54:40;;;;;;;6.80;4.22;;;17.70;99.90;;;;;;2079689;28;20037;-69
2021/08/29 01:55:41;;;;;;;6.50;4.55;;;17.60;99.90;;;;;;2079444;28;20037;-69
2021/08/29 01:56:59;;;;;;;7.07;4.13;;;17.60;99.90;;;;;;2080069;28;20033;-69
2021/08/29 01:57:59;;;;;;;6.18;4.30;;;17.70;99.90;;;;;;2079370;28;20025;-69
2021/08/29 01:59:00;;;;;;;9.15;4.28;;;17.70;99.90;;;;;;2079737;28;20033;-69
2021/08/29 02:00:00;;;;;;;8.60;4.60;;;17.60;99.90;;;;;;2079403;28;20029;-69
2021/08/29 02:01:08;;;;;;;7.88;4.38;;;17.70;99.90;;;;;;2080252;28;20045;-69
2021/08/29 02:02:10;;;;;;;5.55;3.83;;;17.60;99.90;;;;;;2080796;28;20028;-69
2021/08/29 02:03:10;;;;;;;9.73;4.57;;;17.60;99.90;;;;;;2080548;28;20112;-69
2021/08/29 02:04:11;;;;;;;12.50;5.22;;;17.60;99.90;;;;;;2080374;28;20458;-69
2021/08/29 02:05:11;;;;;;;8.57;4.20;;;17.60;99.90;;;;;;2081121;28;20041;-69
2021/08/29 02:06:20;;;;;;;6.45;3.80;;;17.60;99.90;;;;;;2080801;28;20020;-69
2021/08/29 02:07:36;;;;;;;8.35;4.50;;;17.60;99.90;;;;;;2080816;28;20023;-69
2021/08/29 02:08:40;;;;;;;7.78;4.63;;;17.60;99.90;;;;;;2080939;28;20100;-69
2021/08/29 02:09:45;;;;;;;11.73;5.15;;;17.50;99.90;;;;;;2080830;28;20017;-69
2021/08/29 02:10:49;;;;;;;7.68;4.20;;;17.50;99.90;;;;;;2081069;28;20093;-69
2021/08/29 02:11:51;;;;;;;7.93;4.65;;;17.50;99.90;;;;;;2080669;28;20085;-69
2021/08/29 02:13:02;;;;;;;6.10;4.35;;;17.50;99.90;;;;;;2084264;28;20025;-69
2021/08/29 02:14:09;;;;;;;9.45;4.68;;;17.50;99.90;;;;;;2086274;28;20017;-69
2021/08/29 02:15:20;;;;;;;6.07;3.80;;;17.50;99.90;;;;;;2081140;28;20017;-69
2021/08/29 02:16:22;;;;;;;8.02;4.53;;;17.50;99.90;;;;;;2080593;28;20024;-69
2021/08/29 02:17:24;;;;;;;9.02;4.40;;;17.50;99.90;;;;;;2080986;28;20092;-69
2021/08/29 02:18:27;;;;;;;8.07;4.65;;;17.50;99.90;;;;;;2080734;28;20116;-69
2021/08/29 02:19:31;;;;;;;9.93;4.43;;;17.50;99.90;;;;;;2080546;28;20430;-69
2021/08/29 02:20:32;;;;;;;6.53;4.80;;;17.60;99.90;;;;;;2080987;28;20101;-69
2021/08/29 02:21:35;;;;;;;5.20;4.22;;;17.60;99.90;;;;;;2087150;28;20524;-69
2021/08/29 02:22:36;;;;;;;8.30;4.93;;;17.50;99.90;;;;;;2082368;28;20029;-69
2021/08/29 02:23:37;;;;;;;6.85;4.93;;;17.50;99.90;;;;;;2081159;28;20026;-69
2021/08/29 02:24:40;;;;;;;7.75;5.05;;;17.60;99.90;;;;;;2080621;28;20044;-69
2021/08/29 02:25:40;;;;;;;8.07;4.80;;;17.60;99.90;;;;;;2081106;28;20060;-69
2021/08/29 02:26:42;;;;;;;8.35;4.85;;;17.60;99.90;;;;;;2080617;28;20025;-69
2021/08/29 02:27:43;;;;;;;8.98;5.75;;;17.60;99.90;;;;;;2080915;28;20036;-69
2021/08/29 02:28:43;;;;;;;9.60;5.75;;;17.60;99.90;;;;;;2080741;28;20037;-69
2021/08/29 02:29:45;;;;;;;6.55;5.13;;;17.60;99.90;;;;;;2086054;28;20048;-69
2021/08/29 02:30:46;;;;;;;10.95;5.50;;;17.60;99.90;;;;;;2082151;28;20033;-69
2021/08/29 02:31:49;;;;;;;8.52;4.95;;;17.60;99.90;;;;;;2080742;28;20101;-69
2021/08/29 02:32:54;;;;;;;8.52;5.03;;;17.60;99.90;;;;;;2071193;28;20034;-69
2021/08/29 02:33:54;;;;;;;5.70;5.00;;;17.60;99.90;;;;;;2072611;28;20026;-69
2021/08/29 02:34:55;;;;;;;8.45;5.55;;;17.60;99.90;;;;;;2080606;28;20081;-69
2021/08/29 02:35:58;;;;;;;14.15;5.32;;;17.60;99.90;;;;;;2081074;28;20040;-69
2021/08/29 02:37:01;;;;;;;9.43;5.45;;;17.60;99.90;;;;;;2080692;28;20025;-69
2021/08/29 02:38:04;;;;;;;8.00;5.40;;;17.60;99.90;;;;;;2081116;28;20058;-69
2021/08/29 02:39:05;;;;;;;10.23;5.55;;;17.60;99.90;;;;;;2080612;28;20024;-69
2021/08/29 02:40:09;;;;;;;13.75;6.35;;;17.60;99.90;;;;;;2080823;28;20013;-69
2021/08/29 02:41:10;;;;;;;10.32;6.03;;;17.60;99.90;;;;;;2080696;28;20033;-69
2021/08/29 02:42:11;;;;;;;8.98;5.63;;;17.60;99.90;;;;;;2080461;28;20018;-69
2021/08/29 02:43:13;;;;;;;10.30;5.53;;;17.60;99.90;;;;;;2080368;28;20014;-69
2021/08/29 02:44:14;;;;;;;8.93;5.85;;;17.60;99.90;;;;;;2080875;28;20029;-69
2021/08/29 02:45:15;;;;;;;8.55;5.18;;;17.60;99.90;;;;;;2080304;28;20025;-69
2021/08/29 02:46:16;;;;;;;8.02;5.25;;;17.60;99.90;;;;;;2080885;28;20068;-69
2021/08/29 02:47:17;;;;;;;12.05;6.05;;;17.60;99.90;;;;;;2080642;28;20144;-69
2021/08/29 02:48:17;;;;;;;6.93;5.50;;;17.60;99.90;;;;;;2080867;28;20105;-69
2021/08/29 02:49:22;;;;;;;11.02;5.18;;;17.60;99.90;;;;;;2080556;28;20018;-69
2021/08/29 02:50:23;;;;;;;8.95;5.22;;;17.60;99.90;;;;;;2080696;28;20053;-69
2021/08/29 02:51:24;;;;;;;7.43;5.70;;;17.60;99.90;;;;;;2080544;28;20492;-69
2021/08/29 02:52:25;;;;;;;9.93;5.72;;;17.60;99.90;;;;;;2080886;28;20020;-69
2021/08/29 02:53:26;;;;;;;7.90;5.65;;;17.60;99.90;;;;;;2080135;28;20033;-69
2021/08/29 02:54:28;;;;;;;11.43;5.55;;;17.60;99.90;;;;;;2080813;28;20556;-69
2021/08/29 02:55:30;;;;;;;12.38;5.90;;;17.50;99.90;;;;;;2080913;28;20036;-69
2021/08/29 02:56:31;;;;;;;8.50;5.35;;;17.50;99.90;;;;;;2081255;28;20060;-69
2021/08/29 02:57:34;;;;;;;13.13;6.30;;;17.50;99.90;;;;;;2080655;28;20361;-69
2021/08/29 02:58:36;;;;;;;11.40;6.28;;;17.50;99.90;;;;;;2080759;28;20029;-69
2021/08/29 02:59:36;;;;;;;11.27;5.82;;;17.50;99.90;;;;;;2080583;28;20112;-69
2021/08/29 03:00:37;;;;;;;11.68;6.45;;;17.50;99.90;;;;;;2080784;28;20037;-69
2021/08/29 03:01:38;;;;;;;9.30;6.05;;;17.40;99.90;;;;;;2079996;28;20026;-69
2021/08/29 03:02:41;;;;;;;13.98;6.10;;;17.40;99.90;;;;;;2079226;28;20026;-69
2021/08/29 03:03:42;;;;;;;11.70;6.10;;;17.40;99.90;;;;;;2080256;28;20430;-69
2021/08/29 03:04:43;;;;;;;10.60;5.80;;;17.40;99.90;;;;;;2079794;28;20037;-69
2021/08/29 03:05:43;;;;;;;9.82;6.05;;;17.40;99.90;;;;;;2081941;28;20048;-69
2021/08/29 03:06:44;;;;;;;11.75;6.10;;;17.40;99.90;;;;;;2079627;28;20041;-69
2021/08/29 03:07:45;;;;;;;8.98;5.50;;;17.40;99.90;;;;;;2079545;28;20652;-69
2021/08/29 03:08:46;;;;;;;6.45;4.57;;;17.40;99.90;;;;;;2079587;28;20052;-69
2021/08/29 03:09:46;;;;;;;13.02;5.70;;;17.40;99.90;;;;;;2071184;28;20085;-69
2021/08/29 03:10:48;;;;;;;10.40;5.90;;;17.40;99.90;;;;;;2070785;28;20102;-69
2021/08/29 03:11:48;;;;;;;9.90;6.18;;;17.50;99.90;;;;;;2078648;28;20040;-69
2021/08/29 03:12:50;;;;;;;10.73;6.13;;;17.50;99.90;;;;;;2078712;28;20056;-69
2021/08/29 03:13:51;;;;;;;10.10;5.78;;;17.50;99.90;;;;;;2079641;28;20026;-69
2021/08/29 03:14:53;;;;;;;14.32;6.30;;;17.40;99.90;;;;;;2079621;28;20033;-69
2021/08/29 03:15:54;;;;;;;9.60;6.03;;;17.50;99.90;;;;;;2076478;28;20033;-69
2021/08/29 03:16:55;;;;;;;12.18;6.07;;;17.50;99.90;;;;;;2079532;28;20044;-69
2021/08/29 03:17:56;;;;;;;13.20;6.20;;;17.50;99.90;;;;;;2079255;28;20022;-69
2021/08/29 03:18:59;;;;;;;15.45;6.20;;;17.40;99.90;;;;;;2079380;28;20029;-69
2021/08/29 03:20:00;;;;;;;11.57;6.32;;;17.40;99.90;;;;;;2079578;28;20029;-69
2021/08/29 03:21:01;;;;;;;11.02;5.65;;;17.40;99.90;;;;;;2078863;28;20025;-69
2021/08/29 03:22:04;;;;;;;9.93;5.85;;;17.40;99.90;;;;;;2079484;28;20022;-69
2021/08/29 03:23:04;;;;;;;13.35;6.45;;;17.40;99.90;;;;;;2078694;28;20022;-69
2021/08/29 03:24:05;;;;;;;9.68;5.78;;;17.40;99.90;;;;;;2079366;28;20561;-69
2021/08/29 03:25:07;;;;;;;7.68;5.72;;;17.40;99.90;;;;;;2078685;28;20022;-69
2021/08/29 03:26:07;;;;;;;8.88;5.43;;;17.40;99.90;;;;;;2079764;28;20021;-69
2021/08/29 03:27:09;;;;;;;9.57;5.40;;;17.40;99.90;;;;;;2083981;28;20037;-69
2021/08/29 03:28:10;;;;;;;8.68;5.35;;;17.40;99.90;;;;;;2079211;28;20025;-69
2021/08/29 03:29:11;;;;;;;10.10;5.80;;;17.40;99.90;;;;;;2079228;28;20128;-69
2021/08/29 03:30:12;;;;;;;9.20;5.88;;;17.40;99.90;;;;;;2079579;28;20026;-69
2021/08/29 03:31:13;;;;;;;12.50;6.05;;;17.40;99.90;;;;;;2079449;28;20500;-69
2021/08/29 03:32:13;;;;;;;15.00;6.05;;;17.40;99.90;;;;;;2079214;28;20026;-69
2021/08/29 03:33:14;;;;;;;10.23;5.60;;;17.40;99.90;;;;;;2078902;28;20069;-69
2021/08/29 03:34:17;;;;;;;10.02;6.25;;;17.40;99.90;;;;;;2079405;28;20029;-69
2021/08/29 03:35:18;;;;;;;9.40;5.70;;;17.30;99.90;;;;;;2081352;28;20485;-69
2021/08/29 03:36:21;;;;;;;11.00;6.80;;;17.40;99.90;;;;;;2079837;28;20018;-69
2021/08/29 03:37:22;;;;;;;11.48;6.20;;;17.40;99.90;;;;;;2080879;28;20018;-69
2021/08/29 03:38:25;;;;;;;11.85;6.65;;;17.40;99.90;;;;;;2080769;28;20098;-69
2021/08/29 03:39:26;;;;;;;9.10;6.13;;;17.40;99.90;;;;;;2080844;28;20108;-69
2021/08/29 03:40:27;;;;;;;13.85;6.50;;;17.40;99.90;;;;;;2080833;28;20029;-69
2021/08/29 03:41:29;;;;;;;9.48;6.45;;;17.40;99.90;;;;;;2080385;28;20111;-69
2021/08/29 03:42:34;;;;;;;12.48;6.00;;;17.30;99.90;;;;;;2080904;28;20029;-69
2021/08/29 03:43:35;;;;;;;8.55;6.15;;;17.30;99.90;;;;;;2078636;28;20032;-69
2021/08/29 03:44:36;;;;;;;15.23;6.28;;;17.30;99.90;;;;;;2080823;28;20040;-69
2021/08/29 03:45:37;;;;;;;12.93;6.32;;;17.30;99.90;;;;;;2080326;28;20034;-69
2021/08/29 03:46:37;;;;;;;8.35;5.78;;;17.20;99.90;;;;;;2080804;28;20034;-69
2021/08/29 03:47:38;;;;;;;13.40;5.65;;;17.20;99.90;;;;;;2080346;28;20072;-69
2021/08/29 03:48:39;;;;;;;9.88;5.47;;;17.20;99.90;;;;;;2080871;28;20205;-69
2021/08/29 03:49:40;;;;;;;11.68;6.13;;;17.20;99.90;;;;;;2080420;28;20466;-69
2021/08/29 03:50:44;;;;;;;12.07;6.57;;;17.20;99.90;;;;;;2080821;28;20022;-69
2021/08/29 03:51:46;;;;;;;16.80;7.30;;;17.20;99.90;;;;;;2080390;28;20025;-69
2021/08/29 03:52:48;;;;;;;9.82;5.72;;;17.20;99.90;;;;;;2080357;28;20044;-69
2021/08/29 03:53:49;;;;;;;8.80;5.47;;;17.20;99.90;;;;;;2080853;28;20169;-69
2021/08/29 03:54:50;;;;;;;10.18;5.05;;;17.20;99.90;;;;;;2080730;28;20029;-69
2021/08/29 03:55:51;;;;;;;15.05;6.10;;;17.20;99.90;;;;;;2080751;28;20026;-69
2021/08/29 03:56:52;;;;;;;14.07;6.43;;;17.30;99.90;;;;;;2081129;28;20104;-69
2021/08/29 03:57:55;;;;;;;11.73;6.82;;;17.20;99.90;;;;;;2080672;28;20112;-69
2021/08/29 03:58:55;;;;;;;8.70;5.75;;;17.30;99.90;;;;;;2080671;28;20525;-69
2021/08/29 03:59:56;;;;;;;9.85;6.15;;;17.20;99.90;;;;;;2081053;28;20371;-69
2021/08/29 04:00:57;;;;;;;8.85;5.10;;;17.30;99.90;;;;;;2080602;28;20018;-69
2021/08/29 04:01:58;;;;;;;11.23;6.13;;;17.30;99.90;;;;;;2080702;28;20060;-69
2021/08/29 04:02:58;;;;;;;12.75;6.05;;;17.30;99.90;;;;;;2080031;28;20017;-69
2021/08/29 04:03:59;;;;;;;10.52;5.75;;;17.30;99.90;;;;;;2080687;28;20116;-69
2021/08/29 04:05:00;;;;;;;7.97;5.70;;;17.30;99.90;;;;;;2080417;28;20021;-69
2021/08/29 04:06:02;;;;;;;10.27;6.47;;;17.30;99.90;;;;;;2080944;28;20401;-69
2021/08/29 04:07:04;;;;;;;11.80;6.22;;;17.30;99.90;;;;;;2080644;28;20025;-69
2021/08/29 04:08:07;;;;;;;10.13;5.65;;;17.30;99.90;;;;;;2080371;28;20033;-69
2021/08/29 04:09:07;;;;;;;12.77;6.43;;;17.30;99.90;;;;;;2080484;28;20489;-69
2021/08/29 04:10:10;;;;;;;9.75;5.68;;;17.20;99.90;;;;;;2080753;28;20401;-69
2021/08/29 04:11:12;;;;;;;12.32;7.22;;;17.20;99.90;;;;;;2080302;28;20033;-69
2021/08/29 04:12:13;;;;;;;15.80;6.78;;;17.20;99.90;;;;;;2079818;28;20045;-69
2021/08/29 04:13:15;;;;;;;11.18;5.90;;;17.20;99.90;;;;;;2084550;28;20028;-69
2021/08/29 04:14:16;;;;;;;11.93;6.55;;;17.20;99.90;;;;;;2083982;28;20373;-69
2021/08/29 04:15:18;;;;;;;12.52;6.32;;;17.20;99.90;;;;;;2085411;28;20373;-69
2021/08/29 04:16:19;;;;;;;13.07;6.10;;;17.20;99.90;;;;;;2086086;28;20437;-69
2021/08/29 04:17:21;;;;;;;14.90;6.00;;;17.20;99.90;;;;;;2086425;28;20048;-69
2021/08/29 04:18:23;;;;;;;11.93;6.15;;;17.20;99.90;;;;;;2080705;28;20458;-69
2021/08/29 04:19:24;;;;;;;10.45;5.82;;;17.20;99.90;;;;;;2080386;28;20029;-69
2021/08/29 04:20:25;;;;;;;16.95;6.75;;;17.20;99.90;;;;;;2080815;28;20052;-69
2021/08/29 04:21:26;;;;;;;10.77;5.88;;;17.20;99.90;;;;;;2080097;28;20032;-69
2021/08/29 04:22:27;;;;;;;14.15;5.90;;;17.20;99.90;;;;;;2080340;28;20025;-69
2021/08/29 04:23:28;;;;;;;12.45;6.55;;;17.20;99.90;;;;;;2080072;28;20096;-69
2021/08/29 04:24:29;;;;;;;12.65;6.60;;;17.20;99.90;;;;;;2080407;28;20617;-69
2021/08/29 04:25:29;;;;;;;11.55;6.03;;;17.20;99.90;;;;;;2080114;28;20056;-69
2021/08/29 04:26:30;;;;;;;11.10;6.43;;;17.20;99.90;;;;;;2080443;28;20034;-69
2021/08/29 04:27:31;;;;;;;9.65;6.57;;;17.20;99.90;;;;;;2080122;28;20031;-69
2021/08/29 04:28:32;;;;;;;12.90;6.03;;;17.20;99.90;;;;;;2080468;28;20025;-69
2021/08/29 04:29:32;;;;;;;11.15;5.53;;;17.20;99.90;;;;;;2080608;28;20108;-69
2021/08/29 04:30:33;;;;;;;14.10;6.13;;;17.20;99.90;;;;;;2080466;28;20033;-69
2021/08/29 04:31:35;;;;;;;10.27;6.10;;;17.20;99.90;;;;;;2080234;28;20036;-69
2021/08/29 04:32:37;;;;;;;9.73;5.88;;;17.10;99.90;;;;;;2079976;28;20029;-69
2021/08/29 04:33:39;;;;;;;10.15;5.85;;;17.20;99.90;;;;;;2075003;28;20469;-69
2021/08/29 04:34:39;;;;;;;12.52;5.93;;;17.20;99.90;;;;;;2080522;28;20136;-69
2021/08/29 04:35:40;;;;;;;10.18;6.05;;;17.20;99.90;;;;;;2071085;28;20029;-69
2021/08/29 04:36:41;;;;;;;11.30;6.32;;;17.20;99.90;;;;;;2071627;28;20032;-69
2021/08/29 04:37:41;;;;;;;11.40;6.43;;;17.20;99.90;;;;;;2080158;28;20030;-69
2021/08/29 04:38:42;;;;;;;13.38;6.93;;;17.20;99.90;;;;;;2080305;28;20473;-69
2021/08/29 04:39:42;;;;;;;13.55;6.30;;;17.20;99.90;;;;;;2080426;28;20029;-69
2021/08/29 04:40:43;;;;;;;15.65;6.20;;;17.20;99.90;;;;;;2080417;28;20529;-69
2021/08/29 04:41:44;;;;;;;13.85;6.47;;;17.20;99.90;;;;;;2080302;28;20030;-69
2021/08/29 04:42:44;;;;;;;13.20;7.28;;;17.20;99.90;;;;;;2079823;28;20506;-69
2021/08/29 04:43:45;;;;;;;12.77;6.53;;;17.20;99.90;;;;;;2080528;28;20024;-69
2021/08/29 04:44:45;;;;;;;12.43;6.45;;;17.30;99.90;;;;;;2079846;28;20091;-69
2021/08/29 04:45:46;;;;;;;13.15;6.97;;;17.30;99.90;;;;;;2080404;28;20052;-69
2021/08/29 04:46:46;;;;;;;8.73;6.13;;;17.30;99.90;;;;;;2080215;28;20526;-69
2021/08/29 04:47:47;;;;;;;13.73;6.60;;;17.30;99.90;;;;;;2079518;28;20057;-69
2021/08/29 04:48:48;;;;;;;12.23;6.28;;;17.30;99.90;;;;;;2079674;28;20052;-69
2021/08/29 04:49:48;;;;;;;12.90;6.70;;;17.30;99.90;;;;;;2080532;28;20384;-69
2021/08/29 04:50:49;;;;;;;11.50;6.40;;;17.30;99.90;;;;;;2080389;28;20163;-69
2021/08/29 04:51:50;;;;;;;8.95;5.80;;;17.30;99.90;;;;;;2079982;28;20048;-69
2021/08/29 04:52:50;;;;;;;13.52;6.68;;;17.30;99.90;;;;;;2079467;28;20036;-69
2021/08/29 04:53:51;;;;;;;10.65;6.28;;;17.20;99.90;;;;;;2080523;28;20065;-69
2021/08/29 04:54:51;;;;;;;12.30;6.38;;;17.20;99.90;;;;;;2080275;28;20026;-69
2021/08/29 04:55:52;;;;;;;15.55;6.70;;;17.20;99.90;;;;;;2080310;28;20446;-69
2021/08/29 04:56:53;;;;;;;17.33;7.30;;;17.20;99.90;;;;;;2079165;28;20018;-69
2021/08/29 04:57:53;;;;;;;15.23;7.13;;;17.20;99.90;;;;;;2080439;28;20154;-69
2021/08/29 04:58:54;;;;;;;11.18;6.15;;;17.20;99.90;;;;;;2086929;28;20108;-69
2021/08/29 04:59:54;;;;;;;12.85;6.60;;;17.10;99.90;;;;;;2084789;28;20096;-69
2021/08/29 05:00:55;;;;;;;12.88;6.18;;;17.10;99.90;;;;;;2087571;28;20032;-69
2021/08/29 05:01:55;;;;;;;11.70;6.28;;;17.10;99.90;;;;;;2082128;28;20033;-69
2021/08/29 05:02:56;;;;;;;13.27;6.05;;;17.10;99.90;;;;;;2085538;28;20017;-69
2021/08/29 05:04:00;;;;;;;16.95;6.70;;;17.20;99.90;;;;;;2088310;28;20040;-69
2021/08/29 05:05:00;;;;;;;13.00;6.50;;;17.10;99.90;;;;;;2080930;28;20025;-69
2021/08/29 05:06:01;;;;;;;14.70;6.30;;;17.10;99.90;;;;;;2080314;28;20021;-69
2021/08/29 05:07:02;;;;;;;11.27;6.00;;;17.10;99.90;;;;;;2080174;28;20017;-69
2021/08/29 05:08:03;;;;;;;12.65;5.80;;;17.10;99.90;;;;;;2080096;28;20100;-69
2021/08/29 05:09:04;;;;;;;12.20;6.18;;;17.20;99.90;;;;;;2079784;28;20120;-69
2021/08/29 05:10:05;;;;;;;18.40;6.45;;;17.20;99.90;;;;;;2080466;28;20030;-69
2021/08/29 05:11:05;;;;;;;12.82;6.20;;;17.20;99.90;;;;;;2079745;28;20032;-69
2021/08/29 05:12:06;;;;;;;13.15;6.28;;;17.20;99.90;;;;;;2080043;28;20033;-69
2021/08/29 05:13:07;;;;;;;12.05;5.65;;;17.20;99.90;;;;;;2079670;28;20089;-69
2021/08/29 05:14:07;;;;;;;13.02;6.13;;;17.20;99.90;;;;;;2080164;28;20025;-69
2021/08/29 05:15:09;;;;;;;11.15;6.07;;;17.20;99.90;;;;;;2079786;28;20092;-69
2021/08/29 05:16:09;;;;;;;12.88;6.55;;;17.20;99.90;;;;;;2079867;28;20060;-69
2021/08/29 05:17:10;;;;;;;11.30;6.05;;;17.20;99.90;;;;;;2085299;28;20013;-69
2021/08/29 05:18:10;;;;;;;11.52;6.32;;;17.20;99.90;;;;;;2082519;28;20045;-69
2021/08/29 05:19:11;;;;;;;12.18;6.38;;;17.20;99.90;;;;;;2088000;28;20039;-69
2021/08/29 05:20:12;;;;;;;15.88;6.20;;;17.30;99.90;;;;;;2084219;28;20399;-69
2021/08/29 05:21:12;;;;;;;10.15;6.30;;;17.30;99.90;;;;;;2084597;28;20079;-69